Time;durP1;ratioP1;P1;durP2;ratioP2;P2;SDS_P1;SDS_P2;PMS_P1;PMS_P2;Temp;Humidity;BMP_temperature;BMP_pressure;BME280_temperature;BME280_humidity;BME280_pressure;Samples;Min_cycle;Max_cycle;Signal;HPM_P1;HPM_P2
2023/04/02 00:00:08;;;;;;;14.10;7.40;;;;;;;3.14;100.00;99941.48;105010;1262;62730;-57
2023/04/02 00:02:56;;;;;;;11.60;7.10;;;;;;;3.16;100.00;99937.86;105074;1261;61922;-56
2023/04/02 00:05:49;;;;;;;10.80;6.60;;;;;;;3.20;100.00;99932.55;105071;1260;76189;-56
2023/04/02 00:08:25;;;;;;;14.20;7.10;;;;;;;3.22;100.00;99935.80;105240;1257;67224;-57
2023/04/02 00:10:58;;;;;;;10.90;6.30;;;;;;;3.23;100.00;99935.69;104972;1261;73058;-57
2023/04/02 00:13:31;;;;;;;11.80;7.30;;;;;;;3.24;100.00;99935.08;105151;1257;62500;-62
2023/04/02 00:15:59;;;;;;;9.90;6.60;;;;;;;3.25;100.00;99933.59;105295;1261;61857;-55
2023/04/02 00:18:29;;;;;;;11.20;6.90;;;;;;;3.26;100.00;99929.08;105091;1258;76229;-56
2023/04/02 00:21:09;;;;;;;10.60;7.40;;;;;;;3.27;100.00;99934.34;105165;1263;68192;-57
2023/04/02 00:23:39;;;;;;;10.40;6.50;;;;;;;3.27;100.00;99931.39;105017;1263;74500;-57
2023/04/02 00:26:29;;;;;;;11.00;7.90;;;;;;;3.26;100.00;99927.67;105132;1263;61683;-57
2023/04/02 00:29:00;;;;;;;11.70;7.10;;;;;;;3.25;100.00;99927.81;105002;1257;61270;-57
2023/04/02 00:31:37;;;;;;;11.60;7.40;;;;;;;3.23;100.00;99928.15;104868;1258;76079;-56
2023/04/02 00:34:06;;;;;;;11.10;7.00;;;;;;;3.22;100.00;99927.91;105079;1262;68629;-56
2023/04/02 00:36:35;;;;;;;10.80;7.30;;;;;;;3.21;100.00;99926.98;104906;1264;74210;-59
2023/04/02 00:39:09;;;;;;;10.30;7.30;;;;;;;3.21;100.00;99926.24;105013;1257;62372;-56
2023/04/02 00:41:45;;;;;;;10.50;6.80;;;;;;;3.21;100.00;99928.12;104733;1263;61579;-59
2023/04/02 00:44:20;;;;;;;11.10;7.20;;;;;;;3.21;100.00;99929.23;105069;1263;76223;-56
2023/04/02 00:46:49;;;;;;;13.80;7.10;;;;;;;3.19;100.00;99930.96;104856;1260;67897;-56
2023/04/02 00:49:31;;;;;;;11.50;6.90;;;;;;;3.16;100.00;99929.30;105093;1261;74011;-56
2023/04/02 00:52:02;;;;;;;16.30;7.70;;;;;;;3.13;100.00;99929.25;104982;1261;61757;-58
2023/04/02 00:54:36;;;;;;;13.40;8.80;;;;;;;3.12;100.00;99929.85;105058;1260;61235;-56
2023/04/02 00:57:10;;;;;;;17.90;11.00;;;;;;;3.11;100.00;99925.63;105014;1260;76461;-57
2023/04/02 00:59:53;;;;;;;13.40;8.80;;;;;;;3.12;100.00;99929.18;104851;1256;68847;-59
2023/04/02 01:02:30;;;;;;;16.60;9.20;;;;;;;3.13;100.00;99929.05;105087;1260;74275;-55
2023/04/02 01:05:20;;;;;;;13.00;8.20;;;;;;;3.12;100.00;99931.76;105684;1260;61350;-60
2023/04/02 01:07:56;;;;;;;14.30;9.50;;;;;;;3.10;100.00;99927.98;105091;1260;61232;-55
2023/04/02 01:10:48;;;;;;;13.90;10.20;;;;;;;3.07;100.00;99928.94;105016;1257;76212;-56
2023/04/02 01:13:32;;;;;;;18.70;10.20;;;;;;;3.03;100.00;99928.17;105146;1260;67379;-55
2023/04/02 01:16:04;;;;;;;16.70;10.10;;;;;;;2.97;100.00;99923.17;105048;1261;73149;-60
2023/04/02 01:18:50;;;;;;;16.00;11.10;;;;;;;2.91;100.00;99918.95;104799;1260;61304;-57
2023/04/02 01:21:36;;;;;;;18.50;11.90;;;;;;;2.86;100.00;99926.12;105075;1260;61145;-57
2023/04/02 01:24:07;;;;;;;17.50;11.00;;;;;;;2.81;100.00;99927.41;105294;1257;75570;-60
2023/04/02 01:26:36;;;;;;;17.40;10.80;;;;;;;2.76;100.00;99926.29;104958;1258;68797;-57
2023/04/02 01:29:05;;;;;;;16.60;10.80;;;;;;;2.71;100.00;99927.98;105176;1257;74188;-57
2023/04/02 01:31:34;;;;;;;18.20;11.50;;;;;;;2.64;100.00;99926.56;105234;1260;61225;-57
2023/04/02 01:34:06;;;;;;;19.20;10.80;;;;;;;2.57;100.00;99926.91;105384;1258;61645;-57
2023/04/02 01:36:52;;;;;;;18.30;10.70;;;;;;;2.52;100.00;99929.68;104950;1260;76202;-57
2023/04/02 01:39:49;;;;;;;15.00;10.20;;;;;;;2.52;100.00;99930.45;105164;1257;68611;-57
2023/04/02 01:42:28;;;;;;;14.90;9.10;;;;;;;2.51;100.00;99925.88;105192;1257;73965;-57
2023/04/02 01:45:11;;;;;;;12.60;9.50;;;;;;;2.50;100.00;99930.95;105097;1258;61337;-57
2023/04/02 01:47:41;;;;;;;16.70;10.80;;;;;;;2.48;100.00;99930.05;105005;1257;61109;-57
2023/04/02 01:50:35;;;;;;;14.80;8.90;;;;;;;2.47;100.00;99925.06;105342;1257;73175;-57
2023/04/02 01:53:07;;;;;;;16.00;9.40;;;;;;;2.45;100.00;99922.09;105180;1260;68171;-58
2023/04/02 01:55:47;;;;;;;11.10;8.00;;;;;;;2.44;100.00;99920.98;105176;1261;74259;-56
2023/04/02 01:58:18;;;;;;;16.60;8.60;;;;;;;2.44;100.00;99924.96;105080;1260;61277;-56
2023/04/02 02:00:51;;;;;;;13.70;9.10;;;;;;;2.45;100.00;99929.64;105178;1260;61250;-57
2023/04/02 02:03:20;;;;;;;;;;;;;;;2.46;100.00;99929.26;104857;1261;209532;-58
2023/04/02 02:05:49;;;;;;;13.50;8.10;;;;;;;2.49;100.00;99928.49;105113;1261;67850;-55
2023/04/02 02:08:57;;;;;;;9.70;6.40;;;;;;;2.50;100.00;99927.81;105029;1263;73002;-58
2023/04/02 02:11:27;;;;;;;13.30;7.90;;;;;;;2.55;100.00;99928.20;105039;1257;61269;-55
2023/04/02 02:13:58;;;;;;;16.80;9.00;;;;;;;2.62;100.00;99929.98;105460;1257;61323;-56
2023/04/02 02:16:28;;;;;;;9.40;6.20;;;;;;;2.73;100.00;99929.70;105199;1256;76294;-55
2023/04/02 02:19:01;;;;;;;10.70;7.20;;;;;;;2.83;100.00;99925.72;105420;1261;69209;-55
2023/04/02 02:21:41;;;;;;;11.00;5.90;;;;;;;2.94;100.00;99924.51;105059;1257;74430;-58
2023/04/02 02:24:21;;;;;;;8.90;6.20;;;;;;;3.06;100.00;99926.98;105001;1256;61263;-57
2023/04/02 02:27:02;;;;;;;11.10;6.30;;;;;;;3.17;100.00;99924.21;105203;1261;61208;-58
2023/04/02 02:29:34;;;;;;;12.60;6.00;;;;;;;3.28;100.00;99918.13;104854;1257;75268;-57
2023/04/02 02:32:03;;;;;;;9.10;6.20;;;;;;;3.35;100.00;99916.85;105072;1258;68748;-55
2023/04/02 02:34:37;;;;;;;10.40;7.40;;;;;;;3.42;100.00;99917.38;105142;1261;73442;-56
2023/04/02 02:37:13;;;;;;;12.20;7.40;;;;;;;3.45;100.00;99916.96;105024;1261;61366;-56
2023/04/02 02:39:43;;;;;;;14.60;8.90;;;;;;;3.47;100.00;99917.80;104957;1262;61122;-55
2023/04/02 02:42:18;;;;;;;11.20;8.20;;;;;;;3.48;100.00;99918.23;104956;1262;76183;-59
2023/04/02 02:44:47;;;;;;;12.50;8.50;;;;;;;3.51;100.00;99913.80;104920;1258;68589;-56
2023/04/02 02:47:38;;;;;;;12.20;8.20;;;;;;;3.53;100.00;99917.77;105236;1258;73600;-57
2023/04/02 02:50:30;;;;;;;13.80;8.20;;;;;;;3.53;100.00;99913.43;105303;1261;61761;-56
2023/04/02 02:53:04;;;;;;;14.00;9.20;;;;;;;3.57;100.00;99912.92;104969;1263;60779;-57
2023/04/02 02:55:35;;;;;;;13.80;9.30;;;;;;;3.60;100.00;99918.30;105171;1258;75378;-57
2023/04/02 02:58:39;;;;;;;12.90;9.30;;;;;;;3.62;100.00;99915.35;105177;1260;67348;-56
2023/04/02 03:01:21;;;;;;;15.70;9.00;;;;;;;3.62;100.00;99915.33;105048;1257;74206;-57
2023/04/02 03:03:52;;;;;;;13.20;8.30;;;;;;;3.62;100.00;99914.52;104992;1264;61476;-56
2023/04/02 03:06:21;;;;;;;14.70;8.50;;;;;;;3.63;100.00;99911.97;105015;1261;61304;-56
2023/04/02 03:09:09;;;;;;;13.50;8.20;;;;;;;3.65;100.00;99913.29;104978;1263;74155;-56
2023/04/02 03:12:07;;;;;;;16.70;9.20;;;;;;;3.68;100.00;99914.92;105042;1261;68661;-59
2023/04/02 03:14:45;;;;;;;15.40;9.80;;;;;;;3.74;100.00;99912.83;105166;1257;74217;-56
2023/04/02 03:17:34;;;;;;;15.30;9.40;;;;;;;3.81;100.00;99904.09;104873;1257;61356;-58
2023/04/02 03:20:34;;;;;;;14.50;8.90;;;;;;;3.96;100.00;99902.99;105049;1260;61227;-56
2023/04/02 03:23:25;;;;;;;13.30;8.90;;;;;;;4.04;100.00;99904.09;105410;1259;75650;-56
2023/04/02 03:26:00;;;;;;;13.00;8.20;;;;;;;4.03;100.00;99902.43;105254;1256;68663;-56
2023/04/02 03:28:31;;;;;;;13.70;7.50;;;;;;;4.00;100.00;99903.44;104908;1260;72699;-55
2023/04/02 03:31:03;;;;;;;10.10;6.70;;;;;;;3.97;100.00;99896.20;105030;1260;61259;-55
2023/04/02 03:34:01;;;;;;;9.90;6.80;;;;;;;3.92;100.00;99896.99;105032;1257;61623;-56
2023/04/02 03:36:32;;;;;;;11.20;6.60;;;;;;;3.88;100.00;99896.87;105026;1257;76301;-55
2023/04/02 03:39:12;;;;;;;13.20;5.70;;;;;;;3.85;100.00;99897.52;105085;1256;66840;-55
2023/04/02 03:41:50;;;;;;;12.90;8.00;;;;;;;3.83;100.00;99896.11;104655;1258;73192;-60
2023/04/02 03:44:27;;;;;;;8.20;5.20;;;;;;;3.86;100.00;99896.73;105255;1260;61337;-57
2023/04/02 03:47:02;;;;;;;11.00;6.60;;;;;;;3.92;100.00;99898.86;104796;1263;61229;-55
2023/04/02 03:49:45;;;;;;;10.10;5.60;;;;;;;3.97;100.00;99898.20;105154;1257;75480;-59
2023/04/02 03:52:19;;;;;;;12.70;5.70;;;;;;;4.03;100.00;99898.95;104898;1262;68595;-56
2023/04/02 03:54:47;;;;;;;9.20;5.50;;;;;;;4.11;100.00;99891.50;104883;1257;74021;-55
2023/04/02 03:57:39;;;;;;;10.40;5.90;;;;;;;4.22;100.00;99891.45;104952;1257;63466;-56
2023/04/02 04:00:57;;;;;;;12.70;6.40;;;;;;;4.33;100.00;99892.25;105098;1258;61905;-56
2023/04/02 04:03:49;;;;;;;10.60;7.10;;;;;;;4.47;100.00;99891.39;104597;1257;76155;-56
2023/04/02 04:06:29;;;;;;;9.50;6.30;;;;;;;4.58;100.00;99895.06;105090;1257;68989;-57
2023/04/02 04:09:10;;;;;;;11.10;6.20;;;;;;;4.69;100.00;99899.92;105325;1257;74069;-55
2023/04/02 04:11:43;;;;;;;11.80;6.70;;;;;;;4.77;100.00;99902.36;105569;1256;62863;-59
2023/04/02 04:14:19;;;;;;;8.80;6.10;;;;;;;4.85;100.00;99903.24;105417;1257;61333;-56
2023/04/02 04:17:08;;;;;;;9.50;6.00;;;;;;;4.92;100.00;99903.91;105371;1260;76213;-56
2023/04/02 04:19:55;;;;;;;9.80;5.50;;;;;;;5.00;100.00;99905.73;104892;1262;67339;-57
2023/04/02 04:22:32;;;;;;;9.60;6.20;;;;;;;5.08;100.00;99905.75;105204;1258;74061;-57
2023/04/02 04:25:32;;;;;;;10.00;6.10;;;;;;;5.15;100.00;99904.87;104901;1258;61349;-58
2023/04/02 04:28:30;;;;;;;11.00;5.50;;;;;;;5.20;100.00;99903.73;105265;1257;61545;-59
2023/04/02 04:31:02;;;;;;;10.50;5.30;;;;;;;5.24;100.00;99901.05;105109;1257;76319;-56
2023/04/02 04:33:42;;;;;;;10.70;6.10;;;;;;;5.25;100.00;99902.29;105567;1256;68325;-57
2023/04/02 04:36:20;;;;;;;10.30;5.80;;;;;;;5.27;100.00;99898.35;105056;1257;73585;-56
2023/04/02 04:38:54;;;;;;;9.10;5.70;;;;;;;5.29;100.00;99906.54;105159;1261;61485;-57
2023/04/02 04:41:25;;;;;;;11.30;6.40;;;;;;;5.31;100.00;99906.32;105341;1262;61885;-59
2023/04/02 04:44:05;;;;;;;11.60;6.80;;;;;;;5.35;100.00;99904.41;105152;1262;74631;-57
2023/04/02 04:46:38;;;;;;;9.50;5.60;;;;;;;5.40;100.00;99903.69;105165;1257;68217;-56
2023/04/02 04:49:16;;;;;;;8.40;5.90;;;;;;;5.50;100.00;99904.61;105047;1258;73165;-57
2023/04/02 04:51:55;;;;;;;11.50;6.90;;;;;;;5.62;100.00;99911.55;105405;1262;61315;-57
2023/04/02 04:54:25;;;;;;;8.00;5.20;;;;;;;5.76;100.00;99912.35;105122;1256;61755;-57
2023/04/02 04:57:01;;;;;;;10.60;6.50;;;;;;;5.86;100.00;99909.64;104731;1260;76254;-59
2023/04/02 04:59:41;;;;;;;9.30;5.80;;;;;;;5.96;100.00;99908.41;104931;1261;68595;-57
2023/04/02 05:02:18;;;;;;;9.40;6.10;;;;;;;6.03;100.00;99910.92;105178;1257;72816;-56
2023/04/02 05:04:50;;;;;;;9.50;6.00;;;;;;;6.11;100.00;99907.38;105283;1262;61311;-59
2023/04/02 05:07:22;;;;;;;12.40;7.00;;;;;;;6.19;100.00;99908.78;105021;1257;61315;-58
2023/04/02 05:10:16;;;;;;;11.00;7.10;;;;;;;6.28;100.00;99910.53;104985;1256;76145;-55
2023/04/02 05:12:49;;;;;;;8.90;5.20;;;;;;;6.39;100.00;99913.38;105219;1256;67935;-56
2023/04/02 05:15:28;;;;;;;9.40;6.10;;;;;;;6.46;100.00;99909.77;105136;1257;72251;-56
2023/04/02 05:18:16;;;;;;;9.30;6.50;;;;;;;6.53;100.00;99912.28;105142;1256;61420;-56
2023/04/02 05:20:53;;;;;;;10.10;6.40;;;;;;;6.61;100.00;99912.65;105006;1261;61258;-56
2023/04/02 05:23:26;;;;;;;12.40;7.30;;;;;;;6.66;100.00;99914.91;105161;1256;75149;-58
2023/04/02 05:26:05;;;;;;;10.40;6.80;;;;;;;6.72;100.00;99916.27;105209;1257;68658;-57
2023/04/02 05:28:42;;;;;;;9.90;6.90;;;;;;;6.83;100.00;99917.57;104950;1256;74533;-58
2023/04/02 05:31:16;;;;;;;11.20;6.50;;;;;;;6.93;100.00;99920.23;104938;1256;61404;-58
2023/04/02 05:33:46;;;;;;;9.50;6.10;;;;;;;7.00;100.00;99918.58;105076;1259;61260;-59
2023/04/02 05:36:21;;;;;;;11.20;6.30;;;;;;;7.05;100.00;99917.03;104968;1259;75526;-55
2023/04/02 05:38:52;;;;;;;7.40;5.10;;;;;;;7.11;100.00;99916.40;105050;1256;68177;-57
2023/04/02 05:41:43;;;;;;;8.50;4.80;;;;;;;7.13;100.00;99918.73;105261;1256;73933;-57
2023/04/02 05:44:30;;;;;;;8.00;4.10;;;;;;;7.15;100.00;99922.90;105163;1263;61173;-58
2023/04/02 05:47:13;;;;;;;8.00;4.70;;;;;;;7.15;100.00;99917.55;105116;1256;61857;-57
2023/04/02 05:49:46;;;;;;;10.40;5.40;;;;;;;7.17;100.00;99921.23;105333;1256;75170;-58
2023/04/02 05:52:19;;;;;;;7.70;4.20;;;;;;;7.22;100.00;99917.13;105083;1262;67597;-56
2023/04/02 05:54:51;;;;;;;7.70;4.30;;;;;;;7.26;100.00;99914.19;105188;1257;73602;-56
2023/04/02 05:57:21;;;;;;;8.10;3.60;;;;;;;7.32;100.00;99910.62;104972;1264;61352;-57
2023/04/02 06:00:36;;;;;;;6.90;4.40;;;;;;;7.38;100.00;99916.70;104908;1256;61844;-59
2023/04/02 06:03:26;;;;;;;8.30;4.20;;;;;;;7.42;100.00;99917.94;104923;1261;76170;-58
2023/04/02 06:05:58;;;;;;;7.20;3.80;;;;;;;7.49;100.00;99923.08;105106;1257;68064;-59
2023/04/02 06:08:37;;;;;;;6.00;3.80;;;;;;;7.55;100.00;99922.20;105110;1263;74639;-58
2023/04/02 06:11:16;;;;;;;6.50;4.20;;;;;;;7.64;100.00;99926.04;104844;1258;61335;-57
2023/04/02 06:13:45;;;;;;;8.40;4.00;;;;;;;7.70;100.00;99923.59;104871;1257;61258;-56
2023/04/02 06:16:14;;;;;;;6.90;4.20;;;;;;;7.76;100.00;99924.14;105023;1257;74027;-58
2023/04/02 06:18:51;;;;;;;6.00;4.30;;;;;;;7.85;100.00;99929.54;105051;1258;67418;-57
2023/04/02 06:21:20;;;;;;;5.70;3.60;;;;;;;7.91;100.00;99931.98;105159;1256;73089;-59
2023/04/02 06:23:56;;;;;;;7.10;3.90;;;;;;;7.93;100.00;99939.09;105099;1264;61257;-59
2023/04/02 06:26:31;;;;;;;11.10;4.80;;;;;;;7.95;100.00;99942.44;104938;1257;61813;-58
2023/04/02 06:29:04;;;;;;;9.10;4.10;;;;;;;7.98;100.00;99947.77;105105;1257;75673;-58
2023/04/02 06:31:37;;;;;;;9.50;6.30;;;;;;;8.05;100.00;99947.06;105218;1259;66928;-58
2023/04/02 06:34:14;;;;;;;10.30;6.20;;;;;;;8.14;100.00;99949.81;104958;1260;73656;-57
2023/04/02 06:37:27;;;;;;;6.00;4.10;;;;;;;8.25;100.00;99944.80;104783;1257;61700;-59
2023/04/02 06:40:32;;;;;;;7.20;4.10;;;;;;;8.27;100.00;99944.08;105404;1262;62164;-57
2023/04/02 06:43:17;;;;;;;7.20;3.90;;;;;;;8.27;100.00;99942.05;104977;1257;75377;-57
2023/04/02 06:46:14;;;;;;;7.50;4.60;;;;;;;8.30;100.00;99943.61;104779;1258;67545;-57
2023/04/02 06:49:13;;;;;;;;;;;;;;;8.42;100.00;99936.79;105402;1260;74347;-59
2023/04/02 06:51:43;;;;;;;5.40;3.30;;;;;;;8.54;100.00;99941.48;105146;1260;61327;-56
2023/04/02 06:54:14;;;;;;;5.70;3.50;;;;;;;8.63;100.00;99933.34;105009;1257;61569;-57
2023/04/02 06:56:45;;;;;;;6.30;3.70;;;;;;;8.70;100.00;99939.90;104795;1257;75373;-57
2023/04/02 06:59:19;;;;;;;4.70;2.90;;;;;;;8.75;100.00;99940.16;104820;1264;67002;-57
2023/04/02 07:01:51;;;;;;;6.00;3.20;;;;;;;8.79;100.00;99937.56;104954;1257;74527;-56
2023/04/02 07:04:20;;;;;;;6.30;3.30;;;;;;;8.80;100.00;99936.50;105039;1256;61311;-56
2023/04/02 07:06:52;;;;;;;6.80;3.40;;;;;;;8.85;100.00;99931.85;105161;1256;62000;-58
2023/04/02 07:09:24;;;;;;;4.60;3.10;;;;;;;8.90;100.00;99929.92;104827;1256;75435;-55
2023/04/02 07:11:55;;;;;;;7.50;3.50;;;;;;;9.00;100.00;99926.60;104974;1262;68586;-58
2023/04/02 07:14:24;;;;;;;5.90;3.20;;;;;;;9.12;100.00;99925.51;105036;1256;73150;-59
2023/04/02 07:16:53;;;;;;;7.00;3.60;;;;;;;9.20;100.00;99923.09;105261;1257;61445;-59
2023/04/02 07:19:21;;;;;;;6.20;3.40;;;;;;;9.33;100.00;99921.80;105202;1257;61941;-59
2023/04/02 07:21:54;;;;;;;4.80;2.70;;;;;;;9.49;100.00;99918.82;105052;1256;76135;-56
2023/04/02 07:24:24;;;;;;;8.10;3.20;;;;;;;9.60;100.00;99914.20;104906;1256;69300;-61
2023/04/02 07:26:53;;;;;;;6.30;3.00;;;;;;;9.69;100.00;99910.66;104762;1260;74250;-60
2023/04/02 07:29:21;;;;;;;7.50;3.30;;;;;;;9.76;100.00;99906.29;105139;1260;61336;-58
2023/04/02 07:31:51;;;;;;;4.30;3.10;;;;;;;9.86;100.00;99909.25;105157;1256;61187;-56
2023/04/02 07:34:20;;;;;;;5.60;3.30;;;;;;;9.98;100.00;99908.19;105270;1260;76284;-60
2023/04/02 07:36:51;;;;;;;5.00;3.20;;;;;;;10.11;100.00;99901.32;105248;1260;68637;-58
2023/04/02 07:39:19;;;;;;;4.80;3.50;;;;;;;10.30;100.00;99901.53;105211;1260;74135;-58
2023/04/02 07:41:57;;;;;;;6.50;3.70;;;;;;;10.51;100.00;99897.16;104890;1260;62019;-58
2023/04/02 07:44:26;;;;;;;6.60;3.30;;;;;;;10.73;100.00;99898.13;105118;1256;61887;-60
2023/04/02 07:46:55;;;;;;;5.50;3.30;;;;;;;10.89;100.00;99899.13;105177;1256;74744;-57
2023/04/02 07:49:29;;;;;;;7.00;3.40;;;;;;;11.04;100.00;99899.88;105064;1256;67299;-58
2023/04/02 07:51:57;;;;;;;6.70;3.50;;;;;;;11.25;100.00;99896.33;105214;1260;72919;-57
2023/04/02 07:54:26;;;;;;;6.40;3.50;;;;;;;11.55;100.00;99891.31;105347;1256;61808;-61
2023/04/02 07:56:55;;;;;;;7.60;3.90;;;;;;;11.91;100.00;99887.84;105223;1260;61224;-57
2023/04/02 07:59:24;;;;;;;5.20;3.70;;;;;;;12.13;100.00;99883.27;105118;1256;76467;-56
2023/04/02 08:01:53;;;;;;;8.10;4.20;;;;;;;12.25;100.00;99876.91;105323;1257;67666;-56
2023/04/02 08:04:22;;;;;;;6.30;4.10;;;;;;;12.42;98.47;99875.71;105329;1257;73347;-61
2023/04/02 08:06:52;;;;;;;10.10;4.70;;;;;;;12.62;99.51;99874.10;105201;1260;61250;-58
2023/04/02 08:09:20;;;;;;;11.90;5.10;;;;;;;12.73;91.10;99880.67;105120;1260;61864;-58
2023/04/02 08:11:53;;;;;;;9.20;5.60;;;;;;;12.70;91.68;99876.02;105100;1258;74872;-57
2023/04/02 08:14:22;;;;;;;10.00;7.50;;;;;;;12.74;86.50;99877.52;105347;1257;67599;-59
2023/04/02 08:16:52;;;;;;;11.60;8.00;;;;;;;12.75;85.66;99872.73;105243;1261;72149;-56
2023/04/02 08:19:24;;;;;;;9.90;7.60;;;;;;;12.82;84.51;99868.55;105563;1260;61230;-56
2023/04/02 08:21:53;;;;;;;10.50;7.60;;;;;;;12.86;82.99;99869.75;105559;1260;61234;-55
2023/04/02 08:24:22;;;;;;;14.10;9.80;;;;;;;12.87;80.91;99867.84;104794;1256;76190;-59
2023/04/02 08:26:52;;;;;;;14.80;10.40;;;;;;;12.89;80.83;99864.83;105207;1260;67970;-56
2023/04/02 08:29:21;;;;;;;12.60;10.00;;;;;;;12.98;76.77;99864.44;105196;1257;73211;-57
2023/04/02 08:31:50;;;;;;;13.00;10.10;;;;;;;13.13;75.49;99859.77;105167;1256;61633;-58
2023/04/02 08:34:19;;;;;;;14.30;10.40;;;;;;;13.44;73.77;99854.48;105479;1256;61135;-58
2023/04/02 08:36:50;;;;;;;15.10;9.70;;;;;;;13.88;72.42;99851.97;105096;1260;76713;-56
2023/04/02 08:39:19;;;;;;;13.80;10.00;;;;;;;14.33;70.16;99848.26;104993;1256;68484;-56
2023/04/02 08:42:32;;;;;;;13.50;10.10;;;;;;;14.76;62.44;99850.99;105109;1260;74330;-57
2023/04/02 08:45:28;;;;;;;17.50;11.20;;;;;;;15.14;60.21;99849.88;104666;1267;61420;-56
2023/04/02 08:47:58;;;;;;;13.90;10.40;;;;;;;15.52;54.75;99845.30;105087;1256;61231;-56
2023/04/02 08:50:32;;;;;;;16.10;10.30;;;;;;;15.66;52.42;99844.82;105041;1262;75893;-56
2023/04/02 08:53:06;;;;;;;19.50;10.80;;;;;;;15.86;52.04;99839.58;105127;1260;67453;-59
2023/04/02 08:55:51;;;;;;;15.50;11.80;;;;;;;16.20;50.70;99835.88;105113;1257;74239;-57
2023/04/02 08:58:42;;;;;;;17.00;11.90;;;;;;;16.41;48.60;99837.68;105093;1257;61233;-58
2023/04/02 09:01:16;;;;;;;14.80;10.90;;;;;;;16.60;47.99;99837.80;105070;1257;61264;-57
2023/04/02 09:03:46;;;;;;;16.20;12.10;;;;;;;16.67;45.96;99839.67;104981;1257;76144;-58
2023/04/02 09:06:17;;;;;;;14.70;12.50;;;;;;;16.65;45.76;99837.97;105089;1256;68943;-57
2023/04/02 09:08:46;;;;;;;;;;;;;;;16.79;48.14;99836.63;105210;1256;73783;-58
2023/04/02 09:11:48;;;;;;;16.30;12.60;;;;;;;17.09;47.39;99834.50;105135;1256;61718;-56
2023/04/02 09:14:39;;;;;;;16.80;14.70;;;;;;;17.24;43.66;99840.57;105112;1260;60610;-57
2023/04/02 09:17:19;;;;;;;17.90;14.70;;;;;;;17.13;42.77;99844.74;105068;1256;75992;-58
2023/04/02 09:19:57;;;;;;;19.60;15.90;;;;;;;16.84;43.37;99842.73;105304;1260;68218;-57
2023/04/02 09:22:30;;;;;;;21.60;13.70;;;;;;;16.81;43.57;99843.73;105255;1256;74242;-59
2023/04/02 09:25:01;;;;;;;18.30;15.20;;;;;;;17.10;43.75;99844.00;105121;1260;61344;-58
2023/04/02 09:27:35;;;;;;;19.30;14.60;;;;;;;17.34;42.65;99843.73;105130;1260;61234;-56
2023/04/02 09:30:29;;;;;;;23.10;16.60;;;;;;;17.33;41.37;99844.31;105008;1256;76152;-58
2023/04/02 09:33:01;;;;;;;19.30;15.30;;;;;;;17.09;41.73;99841.57;105751;1256;68585;-58
2023/04/02 09:35:31;;;;;;;30.60;21.20;;;;;;;16.93;42.54;99840.27;105478;1256;72710;-56
2023/04/02 09:38:09;;;;;;;24.20;18.30;;;;;;;16.78;42.08;99844.83;105549;1256;61359;-56
2023/04/02 09:40:57;;;;;;;17.30;13.60;;;;;;;16.54;42.03;99845.11;105330;1256;61270;-55
2023/04/02 09:43:28;;;;;;;16.40;11.30;;;;;;;16.35;42.91;99849.55;105430;1256;76163;-59
2023/04/02 09:46:12;;;;;;;16.90;13.30;;;;;;;16.14;43.09;99852.08;105410;1262;67840;-58
2023/04/02 09:48:52;;;;;;;20.10;14.70;;;;;;;15.80;43.57;99854.67;105389;1260;73851;-58
2023/04/02 09:51:25;;;;;;;52.00;29.30;;;;;;;15.57;45.14;99846.59;105736;1257;61258;-58
2023/04/02 09:54:03;;;;;;;16.60;12.70;;;;;;;15.61;46.26;99839.58;105397;1256;61142;-56
2023/04/02 09:56:34;;;;;;;17.90;13.30;;;;;;;15.72;45.77;99846.23;105581;1256;74301;-56
2023/04/02 09:59:02;;;;;;;20.30;14.00;;;;;;;15.87;45.50;99843.52;105519;1257;67433;-57
2023/04/02 10:01:37;;;;;;;16.40;13.30;;;;;;;16.10;46.04;99839.34;105083;1257;72449;-57
2023/04/02 10:04:29;;;;;;;26.20;19.40;;;;;;;16.33;46.97;99840.79;105446;1257;61231;-58
2023/04/02 10:06:57;;;;;;;31.80;21.20;;;;;;;16.63;45.81;99841.71;105577;1260;62068;-57
2023/04/02 10:09:29;;;;;;;26.60;17.90;;;;;;;16.75;45.83;99839.02;105521;1257;75143;-57
2023/04/02 10:11:58;;;;;;;18.70;14.00;;;;;;;16.84;45.47;99841.23;105451;1262;68729;-58
2023/04/02 10:14:41;;;;;;;26.10;18.40;;;;;;;16.77;44.19;99841.38;105221;1256;74448;-58
2023/04/02 10:17:20;;;;;;;23.50;16.80;;;;;;;16.63;43.71;99846.61;105218;1256;61937;-56
2023/04/02 10:19:54;;;;;;;26.70;18.60;;;;;;;16.46;43.82;99843.42;105523;1260;61176;-56
2023/04/02 10:22:26;;;;;;;27.30;19.20;;;;;;;16.24;43.61;99845.91;105530;1256;75731;-57
2023/04/02 10:24:55;;;;;;;15.40;12.80;;;;;;;15.98;44.64;99851.22;105642;1260;68294;-58
2023/04/02 10:27:36;;;;;;;15.40;11.90;;;;;;;15.73;44.20;99846.41;105340;1257;73031;-56
2023/04/02 10:30:13;;;;;;;16.80;12.40;;;;;;;15.52;45.30;99838.54;105717;1260;61179;-58
2023/04/02 10:32:55;;;;;;;20.10;14.30;;;;;;;15.65;46.88;99837.32;105308;1256;61876;-59
2023/04/02 10:35:51;;;;;;;15.00;11.60;;;;;;;15.84;47.34;99842.05;105413;1256;76091;-56
2023/04/02 10:38:52;;;;;;;15.20;12.40;;;;;;;16.10;47.02;99830.92;105561;1256;68642;-59
2023/04/02 10:41:34;;;;;;;13.40;11.50;;;;;;;16.33;46.30;99828.89;105656;1256;74116;-58
2023/04/02 10:44:26;;;;;;;15.00;11.90;;;;;;;16.41;45.82;99832.21;105318;1259;61286;-57
2023/04/02 10:47:08;;;;;;;14.40;11.40;;;;;;;16.49;45.53;99827.80;105468;1260;61869;-57
2023/04/02 10:49:43;;;;;;;18.00;13.70;;;;;;;16.47;46.11;99826.39;105379;1261;75901;-57
2023/04/02 10:52:41;;;;;;;16.80;12.90;;;;;;;16.31;45.76;99834.95;105685;1258;67881;-59
2023/04/02 10:55:14;;;;;;;17.10;11.00;;;;;;;15.99;46.15;99835.55;105231;1256;74262;-57
2023/04/02 10:57:44;;;;;;;15.80;12.40;;;;;;;15.74;46.71;99837.14;105850;1256;61738;-59
2023/04/02 11:00:19;;;;;;;15.60;12.10;;;;;;;15.46;48.21;99839.65;105395;1257;61333;-57
2023/04/02 11:02:54;;;;;;;15.50;11.80;;;;;;;15.20;49.96;99840.35;105259;1262;76438;-56
2023/04/02 11:05:46;;;;;;;17.10;12.60;;;;;;;15.03;52.05;99842.74;105501;1256;68567;-57
2023/04/02 11:08:35;;;;;;;14.60;11.20;;;;;;;14.95;57.48;99841.16;105368;1256;74517;-56
2023/04/02 11:11:25;;;;;;;15.30;11.50;;;;;;;14.96;57.54;99837.63;105684;1260;61238;-58
2023/04/02 11:14:28;;;;;;;14.70;10.30;;;;;;;14.95;55.67;99838.70;105408;1256;61244;-57
2023/04/02 11:17:03;;;;;;;15.00;11.40;;;;;;;14.84;54.33;99844.11;105808;1256;75152;-58
2023/04/02 11:19:33;;;;;;;13.20;10.10;;;;;;;14.68;55.41;99836.32;105580;1256;68713;-57
2023/04/02 11:22:04;;;;;;;14.30;9.90;;;;;;;14.55;57.60;99840.11;105673;1256;73980;-58
2023/04/02 11:24:47;;;;;;;12.20;9.00;;;;;;;14.49;58.01;99832.17;105274;1262;61918;-57
2023/04/02 11:27:24;;;;;;;11.50;8.70;;;;;;;14.49;59.02;99837.70;105317;1261;61250;-55
2023/04/02 11:30:01;;;;;;;11.10;8.40;;;;;;;14.39;60.09;99838.52;105458;1257;74011;-57
2023/04/02 11:32:38;;;;;;;12.40;8.80;;;;;;;14.25;65.28;99833.23;105427;1257;67459;-58
2023/04/02 11:35:39;;;;;;;11.30;9.40;;;;;;;14.22;67.42;99833.09;105493;1260;74434;-56
2023/04/02 11:38:10;;;;;;;15.00;9.90;;;;;;;14.20;68.79;99831.88;105058;1256;61982;-57
2023/04/02 11:40:45;;;;;;;13.20;9.50;;;;;;;14.21;70.36;99831.86;105103;1260;62685;-56
2023/04/02 11:43:31;;;;;;;10.90;8.00;;;;;;;14.24;69.23;99829.99;105098;1256;76500;-56
2023/04/02 11:46:07;;;;;;;13.60;8.40;;;;;;;14.23;71.58;99827.34;105315;1260;67613;-56
2023/04/02 11:48:36;;;;;;;12.00;8.70;;;;;;;14.25;70.82;99828.77;105234;1256;74292;-58
2023/04/02 11:51:19;;;;;;;11.00;6.80;;;;;;;14.24;71.03;99825.70;105120;1256;61903;-56
2023/04/02 11:53:57;;;;;;;9.00;5.80;;;;;;;14.28;72.87;99824.63;105061;1256;61868;-56
2023/04/02 11:56:38;;;;;;;8.00;6.00;;;;;;;14.31;71.76;99818.05;105000;1256;75690;-55
2023/04/02 11:59:12;;;;;;;9.40;6.40;;;;;;;14.33;71.19;99815.19;105209;1257;67425;-57
2023/04/02 12:01:51;;;;;;;8.30;5.50;;;;;;;14.34;70.90;99814.84;105161;1256;74324;-55
2023/04/02 12:04:38;;;;;;;7.50;5.40;;;;;;;14.41;67.76;99814.80;105110;1256;61640;-56